Time;durP1;ratioP1;P1;durP2;ratioP2;P2;SDS_P1;SDS_P2;PMS_P1;PMS_P2;Temp;Humidity;BMP_temperature;BMP_pressure;BME280_temperature;BME280_humidity;BME280_pressure;Samples;Min_cycle;Max_cycle;Signal;HPM_P1;HPM_P2
2021/07/12 00:00:52;;;;;;;6.23;2.20;;;;;;;13.38;nan;96434.41;3559894;40;20535;-73
2021/07/12 00:03:20;;;;;;;3.00;2.07;;;;;;;13.52;nan;96449.88;3559955;40;20934;-73
2021/07/12 00:05:48;;;;;;;2.20;2.00;;;;;;;13.40;nan;96454.38;3556824;40;20560;-73
2021/07/12 00:08:16;;;;;;;11.03;1.83;;;;;;;13.37;nan;96454.63;3558821;40;20824;-73
2021/07/12 00:10:44;;;;;;;4.63;1.90;;;;;;;13.18;nan;96450.00;3559215;40;20972;-73
2021/07/12 00:13:12;;;;;;;8.30;2.10;;;;;;;13.11;nan;96448.81;3560627;40;20483;-73
2021/07/12 00:15:41;;;;;;;6.60;2.43;;;;;;;13.09;nan;96448.13;3559937;40;20577;-74
2021/07/12 00:18:09;;;;;;;7.47;2.20;;;;;;;13.04;nan;96447.69;3561795;40;20548;-74
2021/07/12 00:20:38;;;;;;;12.53;2.20;;;;;;;13.05;nan;96444.06;3562644;40;20539;-73
2021/07/12 00:23:06;;;;;;;2.93;1.73;;;;;;;12.98;nan;96438.50;3562167;40;20529;-74
2021/07/12 00:25:34;;;;;;;2.33;1.70;;;;;;;12.81;nan;96441.63;3562474;40;20529;-75
2021/07/12 00:28:04;;;;;;;6.70;2.00;;;;;;;12.84;nan;96436.16;3559606;40;20894;-74
2021/07/12 00:30:32;;;;;;;6.70;2.00;;;;;;;12.84;nan;96431.72;3560335;40;20933;-73
2021/07/12 00:33:02;;;;;;;6.17;2.33;;;;;;;12.82;nan;96425.75;3562606;40;20854;-75
2021/07/12 00:35:30;;;;;;;3.30;2.40;;;;;;;12.83;nan;96413.44;3561403;40;20974;-74
2021/07/12 00:37:58;;;;;;;5.40;1.83;;;;;;;12.78;nan;96418.22;3563215;40;20559;-74
2021/07/12 00:40:29;;;;;;;4.93;1.80;;;;;;;12.61;nan;96412.53;3563949;40;20835;-74
2021/07/12 00:42:57;;;;;;;5.73;2.10;;;;;;;12.80;nan;96419.78;3559026;40;20554;-73
2021/07/12 00:45:27;;;;;;;2.80;2.13;;;;;;;12.93;nan;96413.53;3560156;40;20548;-74
2021/07/12 00:47:56;;;;;;;7.93;2.27;;;;;;;12.88;nan;96406.03;3561932;40;20446;-74
2021/07/12 00:50:31;;;;;;;8.20;2.30;;;;;;;12.85;nan;96409.72;3560350;40;20850;-74
2021/07/12 00:52:59;;;;;;;4.13;2.50;;;;;;;12.73;nan;96394.13;3559056;40;20458;-72
2021/07/12 00:55:30;;;;;;;6.63;2.10;;;;;;;12.74;nan;96390.53;3556885;40;20493;-74
2021/07/12 00:58:00;;;;;;;2.90;2.10;;;;;;;12.72;nan;96385.41;3558569;40;20675;-74
2021/07/12 01:00:29;;;;;;;7.90;2.87;;;;;;;12.59;nan;96369.78;3560856;40;20735;-73
2021/07/12 01:02:57;;;;;;;5.50;2.13;;;;;;;12.75;nan;96394.84;3559297;40;20563;-73
2021/07/12 01:05:29;;;;;;;3.30;1.60;;;;;;;12.71;nan;96388.16;3555011;40;20475;-72
2021/07/12 01:07:57;;;;;;;5.10;2.13;;;;;;;12.68;nan;96394.47;3550918;40;20547;-74
2021/07/12 01:10:26;;;;;;;3.77;2.60;;;;;;;12.65;nan;96397.38;3551794;40;20922;-73
2021/07/12 01:13:13;;;;;;;3.93;1.87;;;;;;;12.51;nan;96395.03;3563758;40;20884;-77
2021/07/12 01:15:49;;;;;;;2.93;1.67;;;;;;;12.55;nan;96388.56;3560325;40;20477;-73
2021/07/12 01:18:27;;;;;;;4.00;1.80;;;;;;;12.63;nan;96389.59;3559423;40;20464;-74
2021/07/12 01:21:47;;;;;;;9.20;2.13;;;;;;;12.49;nan;96378.56;3550415;40;20455;-73
2021/07/12 01:25:03;;;;;;;5.20;1.70;;;;;;;12.50;nan;96374.94;3531310;40;20678;-75
2021/07/12 01:28:07;;;;;;;3.40;2.07;;;;;;;12.46;nan;96369.94;3527435;40;20456;-75
2021/07/12 01:31:03;;;;;;;3.07;2.10;;;;;;;12.37;nan;96365.44;3554182;40;20911;-73
2021/07/12 01:33:39;;;;;;;5.50;2.40;;;;;;;12.42;nan;96365.06;3557244;40;20445;-74
2021/07/12 01:36:15;;;;;;;3.87;2.50;;;;;;;12.37;nan;96362.81;3543258;40;20492;-75
2021/07/12 01:38:51;;;;;;;6.60;2.73;;;;;;;12.28;nan;96360.91;3547331;40;21125;-72
2021/07/12 01:41:27;;;;;;;4.03;2.23;;;;;;;12.38;nan;96355.75;3543043;40;20473;-73
2021/07/12 01:44:00;;;;;;;3.90;2.27;;;;;;;12.35;nan;96356.84;3544864;40;20479;-73
2021/07/12 01:46:34;;;;;;;4.70;2.10;;;;;;;12.22;nan;96364.84;3555640;40;20673;-73
2021/07/12 01:49:08;;;;;;;4.13;2.30;;;;;;;12.14;nan;96369.88;3556845;40;20532;-74
2021/07/12 01:51:42;;;;;;;17.33;2.00;;;;;;;12.04;nan;96374.19;3544994;40;20530;-75
2021/07/12 01:54:17;;;;;;;7.20;2.30;;;;;;;11.91;nan;96371.66;3545265;40;20439;-72
2021/07/12 01:56:52;;;;;;;3.33;2.10;;;;;;;11.96;nan;96371.31;3548220;40;20532;-73
2021/07/12 01:59:27;;;;;;;6.10;2.07;;;;;;;12.02;nan;96358.56;3548903;40;20774;-72
2021/07/12 02:01:56;;;;;;;2.77;1.70;;;;;;;12.15;nan;96366.31;3558111;40;20449;-77
2021/07/12 02:04:29;;;;;;;3.10;2.13;;;;;;;12.03;nan;96368.06;3558009;40;20454;-73
2021/07/12 02:06:59;;;;;;;3.63;2.03;;;;;;;12.07;nan;96372.16;3556937;40;21125;-73
2021/07/12 02:09:29;;;;;;;3.27;2.00;;;;;;;12.04;nan;96372.38;3558290;40;20699;-73
2021/07/12 02:12:23;;;;;;;4.63;2.20;;;;;;;11.88;nan;96383.22;3559899;40;20457;-75
2021/07/12 02:14:52;;;;;;;3.50;1.87;;;;;;;11.90;nan;96377.88;3556651;40;20475;-73
2021/07/12 02:17:21;;;;;;;5.13;2.07;;;;;;;11.91;nan;96371.66;3556865;40;20556;-73
2021/07/12 02:19:51;;;;;;;6.80;2.03;;;;;;;12.00;nan;96373.59;3556966;40;20781;-73
2021/07/12 02:22:21;;;;;;;10.53;1.90;;;;;;;11.93;nan;96364.50;3557254;40;20489;-73
2021/07/12 02:24:50;;;;;;;6.80;1.93;;;;;;;11.80;nan;96376.88;3562940;40;20569;-73
2021/07/12 02:27:22;;;;;;;2.30;1.60;;;;;;;11.85;nan;96374.75;3559628;40;20459;-74
2021/07/12 02:29:51;;;;;;;2.90;1.80;;;;;;;11.81;nan;96371.50;3562815;40;20463;-75
2021/07/12 02:32:20;;;;;;;3.90;2.13;;;;;;;11.83;nan;96368.78;3560104;40;20476;-73
2021/07/12 02:34:51;;;;;;;6.40;1.80;;;;;;;11.83;nan;96366.97;3560925;40;20785;-73
2021/07/12 02:37:21;;;;;;;5.60;2.10;;;;;;;11.82;nan;96357.44;3560798;40;20761;-73
2021/07/12 02:39:51;;;;;;;8.63;2.63;;;;;;;11.86;nan;96355.44;3562552;40;20444;-74
2021/07/12 02:42:19;;;;;;;8.93;2.27;;;;;;;11.88;nan;96349.09;3561359;40;20839;-73
2021/07/12 02:44:49;;;;;;;5.90;1.97;;;;;;;11.77;nan;96361.38;3556228;40;20455;-74
2021/07/12 02:47:17;;;;;;;3.40;1.87;;;;;;;11.85;nan;96369.50;3556817;40;20492;-76
2021/07/12 02:49:45;;;;;;;10.00;3.00;;;;;;;11.83;nan;96361.72;3557647;40;20768;-75
2021/07/12 02:52:22;;;;;;;3.73;2.80;;;;;;;11.76;nan;96363.19;3562259;40;20446;-74
2021/07/12 02:54:55;;;;;;;7.00;2.20;;;;;;;11.71;nan;96365.31;3558254;40;20908;-75
2021/07/12 02:57:23;;;;;;;5.20;2.50;;;;;;;11.62;nan;96364.25;3558407;40;21007;-74
2021/07/12 02:59:51;;;;;;;3.00;2.10;;;;;;;11.62;nan;96347.66;3558709;40;20851;-74
2021/07/12 03:02:19;;;;;;;4.33;2.40;;;;;;;11.66;nan;96339.44;3561234;40;20762;-71
2021/07/12 03:04:47;;;;;;;6.77;2.70;;;;;;;11.66;nan;96357.81;3560077;40;20547;-71
2021/07/12 03:07:21;;;;;;;6.37;2.20;;;;;;;11.65;nan;96353.50;3563458;40;20527;-71
2021/07/12 03:09:53;;;;;;;3.10;1.93;;;;;;;11.61;nan;96343.38;3558010;40;20559;-73
2021/07/12 03:12:28;;;;;;;5.23;2.40;;;;;;;11.65;nan;96353.50;3561979;40;20458;-72
2021/07/12 03:15:02;;;;;;;2.80;2.23;;;;;;;11.61;nan;96343.38;3560915;40;20909;-71
2021/07/12 03:17:34;;;;;;;6.73;2.87;;;;;;;11.60;nan;96339.94;3558425;40;20493;-71
2021/07/12 03:20:06;;;;;;;6.10;2.40;;;;;;;11.62;nan;96330.16;3559051;40;20808;-72
2021/07/12 03:22:38;;;;;;;6.30;2.40;;;;;;;11.59;nan;96319.88;3556270;40;20847;-73
2021/07/12 03:25:11;;;;;;;4.73;2.50;;;;;;;11.51;nan;96316.19;3562224;40;20928;-73
2021/07/12 03:27:39;;;;;;;4.53;2.40;;;;;;;11.63;nan;96317.84;3556558;40;20439;-75
2021/07/12 03:30:10;;;;;;;4.10;2.10;;;;;;;11.70;nan;96320.84;3557619;40;20524;-74
2021/07/12 03:32:38;;;;;;;4.13;2.27;;;;;;;11.57;nan;96321.78;3561526;40;20454;-71
2021/07/12 03:35:08;;;;;;;5.47;2.37;;;;;;;11.63;nan;96317.84;3561746;40;20856;-72
2021/07/12 03:37:37;;;;;;;5.60;2.50;;;;;;;11.59;nan;96319.06;3559704;40;20480;-74
2021/07/12 03:40:07;;;;;;;3.57;2.50;;;;;;;11.60;nan;96311.06;3561232;40;20954;-74
2021/07/12 03:42:37;;;;;;;3.20;2.40;;;;;;;11.68;nan;96319.19;3563166;40;20463;-76
2021/07/12 03:45:07;;;;;;;6.03;2.63;;;;;;;11.75;nan;96323.94;3559002;40;20470;-75
2021/07/12 03:47:36;;;;;;;12.20;2.40;;;;;;;11.63;nan;96320.47;3563995;40;20472;-75
2021/07/12 03:50:09;;;;;;;6.53;2.40;;;;;;;11.47;nan;96329.53;3557913;40;20531;-74
2021/07/12 03:52:43;;;;;;;9.50;2.30;;;;;;;11.30;nan;96327.34;3556907;40;20689;-73
2021/07/12 03:55:14;;;;;;;5.70;1.97;;;;;;;10.84;nan;96331.66;3562404;40;20558;-73
2021/07/12 03:57:42;;;;;;;6.03;2.40;;;;;;;10.79;nan;96331.13;3562112;40;20522;-73
2021/07/12 04:00:12;;;;;;;6.73;2.10;;;;;;;11.12;nan;96313.03;3552446;40;20986;-74
2021/07/12 04:02:41;;;;;;;4.63;2.53;;;;;;;11.38;nan;96316.28;3558924;40;20929;-73
2021/07/12 04:05:09;;;;;;;5.33;2.03;;;;;;;11.41;nan;96310.81;3562770;40;20466;-72
2021/07/12 04:07:38;;;;;;;2.60;2.03;;;;;;;11.55;nan;96304.50;3561546;40;20453;-73
2021/07/12 04:10:10;;;;;;;3.00;2.13;;;;;;;11.57;nan;96292.13;3559096;40;20780;-74
2021/07/12 04:12:39;;;;;;;10.53;2.43;;;;;;;11.63;nan;96281.97;3558772;40;20657;-75
2021/07/12 04:15:08;;;;;;;3.93;2.47;;;;;;;11.67;nan;96278.16;3559340;40;20463;-75
2021/07/12 04:17:37;;;;;;;7.63;3.13;;;;;;;11.69;nan;96278.03;3561901;40;20451;-77
2021/07/12 04:20:06;;;;;;;4.40;2.20;;;;;;;11.75;nan;96279.34;3555489;39;20693;-75
2021/07/12 04:22:34;;;;;;;5.33;1.90;;;;;;;11.82;nan;96273.50;3557096;40;20543;-73
2021/07/12 04:25:03;;;;;;;4.30;2.80;;;;;;;11.61;nan;96273.38;3562741;40;20689;-76
2021/07/12 04:27:32;;;;;;;4.70;2.40;;;;;;;11.79;nan;96278.16;3560875;40;20548;-74
2021/07/12 04:30:00;;;;;;;4.37;2.40;;;;;;;11.65;nan;96266.94;3563022;40;20474;-75
2021/07/12 04:32:28;;;;;;;7.60;2.30;;;;;;;11.94;nan;96276.16;3561796;40;20536;-75
2021/07/12 04:34:56;;;;;;;3.63;2.40;;;;;;;11.94;nan;96282.22;3550707;40;20452;-74
2021/07/12 04:37:24;;;;;;;6.87;2.67;;;;;;;12.01;nan;96272.06;3553197;40;20976;-74
2021/07/12 04:39:52;;;;;;;4.77;2.40;;;;;;;12.02;nan;96274.56;3558731;40;20803;-75
2021/07/12 04:42:20;;;;;;;16.87;2.70;;;;;;;11.98;nan;96275.78;3563948;40;20469;-75
2021/07/12 04:44:49;;;;;;;8.30;3.37;;;;;;;11.91;nan;96282.44;3559642;40;20797;-74
2021/07/12 04:47:17;;;;;;;4.60;2.70;;;;;;;11.89;nan;96289.59;3558735;40;20460;-73
2021/07/12 04:49:45;;;;;;;6.70;2.77;;;;;;;11.99;nan;96287.91;3556674;40;20451;-72
2021/07/12 04:52:13;;;;;;;6.50;3.13;;;;;;;12.01;nan;96295.69;3548214;40;20471;-76
2021/07/12 04:54:42;;;;;;;5.33;2.77;;;;;;;12.26;nan;96294.56;3559803;40;20532;-75
2021/07/12 04:57:10;;;;;;;6.67;3.10;;;;;;;12.40;nan;96296.06;3550937;40;21092;-75
2021/07/12 04:59:39;;;;;;;5.43;2.40;;;;;;;12.47;nan;96297.25;3558123;40;20545;-75
2021/07/12 05:02:10;;;;;;;4.50;2.60;;;;;;;12.58;nan;96306.88;3559187;40;20440;-73
2021/07/12 05:04:38;;;;;;;5.97;2.80;;;;;;;12.76;nan;96302.75;3556395;40;20459;-73
2021/07/12 05:07:06;;;;;;;6.23;2.80;;;;;;;12.84;nan;96304.75;3557093;40;20941;-73
2021/07/12 05:09:34;;;;;;;5.10;2.43;;;;;;;12.99;nan;96300.84;3560599;40;20915;-73
2021/07/12 05:12:02;;;;;;;9.20;2.80;;;;;;;13.08;nan;96303.69;3558725;40;20459;-74
2021/07/12 05:14:30;;;;;;;11.00;3.47;;;;;;;13.10;nan;96292.06;3561196;40;20501;-73
2021/07/12 05:16:58;;;;;;;11.03;3.00;;;;;;;13.07;nan;96289.69;3560983;40;20679;-72
2021/07/12 05:19:28;;;;;;;6.77;2.67;;;;;;;12.98;nan;96280.78;3562986;40;20766;-72
2021/07/12 05:21:56;;;;;;;5.03;2.00;;;;;;;13.32;nan;96279.78;3566600;40;20757;-72
2021/07/12 05:24:24;;;;;;;121.47;56.63;;;;;;;13.60;nan;96265.94;3568202;40;20521;-73
2021/07/12 05:26:52;;;;;;;27.50;13.20;;;;;;;13.84;nan;96251.63;3561356;40;20456;-72
2021/07/12 05:29:20;;;;;;;8.07;5.40;;;;;;;13.83;nan;96255.19;3561098;40;20905;-71
2021/07/12 05:31:48;;;;;;;4.77;2.60;;;;;;;14.19;nan;96258.19;3562404;40;20914;-72
2021/07/12 05:34:17;;;;;;;10.43;2.90;;;;;;;14.45;nan;96258.50;3561118;40;20885;-73
2021/07/12 05:36:46;;;;;;;4.60;2.50;;;;;;;14.87;nan;96255.59;3558416;40;20446;-72
2021/07/12 05:39:14;;;;;;;4.20;1.97;;;;;;;15.33;nan;96246.09;3554746;40;21149;-72
2021/07/12 05:41:44;;;;;;;15.40;2.20;;;;;;;15.45;nan;96252.03;3558260;40;20831;-73
2021/07/12 05:44:12;;;;;;;4.83;1.67;;;;;;;15.52;nan;96250.44;3557895;40;20718;-72
2021/07/12 05:46:40;;;;;;;5.90;1.80;;;;;;;15.65;nan;96257.22;3561609;40;20919;-72
2021/07/12 05:49:08;;;;;;;2.00;1.80;;;;;;;15.63;nan;96266.13;3559516;40;20469;-75
2021/07/12 05:51:36;;;;;;;4.60;2.30;;;;;;;15.59;nan;96262.09;3559952;40;21145;-74
2021/07/12 05:54:30;;;;;;;7.40;2.60;;;;;;;15.82;nan;96261.78;3562727;40;20454;-75
2021/07/12 05:56:58;;;;;;;2.97;1.70;;;;;;;16.06;nan;96257.75;3550571;40;20957;-72
2021/07/12 05:59:26;;;;;;;4.30;2.00;;;;;;;16.20;nan;96260.72;3555712;40;20569;-71
2021/07/12 06:01:54;;;;;;;2.07;1.50;;;;;;;16.31;nan;96256.22;3557198;40;20467;-72
2021/07/12 06:04:22;;;;;;;3.53;1.80;;;;;;;16.51;nan;96256.91;3561067;40;20492;-75
2021/07/12 06:06:50;;;;;;;5.10;1.97;;;;;;;16.62;nan;96248.72;3556540;40;20999;-72
2021/07/12 06:09:18;;;;;;;2.40;2.00;;;;;;;16.79;nan;96253.19;3562049;40;20430;-72
2021/07/12 06:11:47;;;;;;;4.83;1.87;;;;;;;16.53;nan;96255.78;3560331;40;20948;-75
2021/07/12 06:14:15;;;;;;;3.03;1.70;;;;;;;16.63;nan;96250.41;3553939;40;20465;-74
2021/07/12 06:16:43;;;;;;;4.13;1.60;;;;;;;16.74;nan;96226.41;3548415;40;20917;-74
2021/07/12 06:19:14;;;;;;;3.53;1.70;;;;;;;17.04;nan;96247.31;3558477;40;20450;-72
2021/07/12 06:21:42;;;;;;;2.80;1.80;;;;;;;17.07;nan;96245.19;3552353;40;20889;-73
2021/07/12 06:24:10;;;;;;;29.20;14.80;;;;;;;17.17;nan;96237.13;3558969;40;20900;-74
2021/07/12 06:26:38;;;;;;;2.20;2.00;;;;;;;17.24;nan;96232.88;3560206;40;20905;-72
2021/07/12 06:29:08;;;;;;;4.80;1.80;;;;;;;17.24;nan;96232.06;3556584;40;20475;-74
2021/07/12 06:31:36;;;;;;;2.63;1.70;;;;;;;17.47;nan;96238.50;3549368;40;20827;-73
2021/07/12 06:34:04;;;;;;;5.10;1.73;;;;;;;17.31;nan;96246.34;3555172;40;20910;-72
2021/07/12 06:36:32;;;;;;;2.80;1.53;;;;;;;17.67;nan;96235.59;3548151;40;20493;-72
2021/07/12 06:39:00;;;;;;;2.97;1.57;;;;;;;17.82;nan;96236.69;3555176;40;20467;-74
2021/07/12 06:41:28;;;;;;;4.83;1.50;;;;;;;17.58;nan;96234.72;3558541;40;20830;-71
2021/07/12 06:43:56;;;;;;;7.27;1.87;;;;;;;17.40;nan;96242.75;3558588;40;20760;-73
2021/07/12 06:46:26;;;;;;;5.47;1.83;;;;;;;17.60;nan;96248.63;3560206;40;20914;-71
2021/07/12 06:48:54;;;;;;;5.13;2.03;;;;;;;17.77;nan;96218.59;3548004;40;20991;-72
2021/07/12 06:51:22;;;;;;;3.80;1.60;;;;;;;17.77;nan;96228.38;3555863;40;20587;-74
2021/07/12 06:53:50;;;;;;;14.47;3.13;;;;;;;18.15;nan;96220.91;3554889;40;20696;-70
2021/07/12 06:56:18;;;;;;;10.33;2.23;;;;;;;18.31;nan;96215.66;3549556;40;20694;-72
2021/07/12 06:58:46;;;;;;;8.03;2.97;;;;;;;18.49;nan;96207.56;3561033;40;20558;-72
2021/07/12 07:01:14;;;;;;;3.23;2.00;;;;;;;18.46;nan;96202.56;3560817;40;20928;-72
2021/07/12 07:03:44;;;;;;;4.80;2.30;;;;;;;18.27;nan;96198.41;3558115;40;20436;-73
2021/07/12 07:06:12;;;;;;;2.40;1.60;;;;;;;18.13;nan;96191.09;3562266;40;20768;-72
2021/07/12 07:08:40;;;;;;;5.80;2.13;;;;;;;18.51;nan;96172.94;3564270;40;20443;-72
2021/07/12 07:11:09;;;;;;;4.30;1.63;;;;;;;18.93;nan;96182.56;3562442;40;20559;-73
2021/07/12 07:13:38;;;;;;;3.17;1.87;;;;;;;19.12;nan;96165.44;3562420;40;20757;-72
2021/07/12 07:16:07;;;;;;;4.37;1.53;;;;;;;19.16;nan;96180.84;3559556;40;20715;-72
2021/07/12 07:18:35;;;;;;;1.40;1.30;;;;;;;18.87;nan;96173.44;3556712;40;20818;-72
2021/07/12 07:21:05;;;;;;;4.80;1.67;;;;;;;19.17;nan;96171.91;3555326;40;20491;-71
2021/07/12 07:23:33;;;;;;;1.90;1.70;;;;;;;19.31;nan;96167.72;3558106;40;20524;-73
2021/07/12 07:26:00;;;;;;;2.60;2.00;;;;;;;19.46;nan;96159.03;3556843;40;20480;-76
2021/07/12 07:28:30;;;;;;;9.53;2.17;;;;;;;19.55;nan;96153.53;3560986;40;20489;-74
2021/07/12 07:30:58;;;;;;;2.53;1.63;;;;;;;19.80;nan;96140.19;3559075;40;20466;-71
2021/07/12 07:33:29;;;;;;;3.60;2.17;;;;;;;19.59;nan;96134.59;3560215;40;20555;-70
2021/07/12 07:35:57;;;;;;;2.37;1.30;;;;;;;19.62;nan;96123.63;3561928;40;20833;-72
2021/07/12 07:38:28;;;;;;;2.60;1.20;;;;;;;19.59;nan;96132.75;3561355;40;20745;-73
2021/07/12 07:40:55;;;;;;;6.17;1.63;;;;;;;19.47;nan;96124.34;3558481;40;20463;-73
2021/07/12 07:43:23;;;;;;;4.60;1.67;;;;;;;20.09;nan;96120.06;3561547;40;20773;-73
2021/07/12 07:45:51;;;;;;;2.37;1.23;;;;;;;20.52;nan;96112.41;3552087;40;20540;-73
2021/07/12 07:48:20;;;;;;;7.03;1.70;;;;;;;20.52;nan;96115.06;3563467;40;20458;-73
2021/07/12 07:50:48;;;;;;;11.00;2.67;;;;;;;20.43;nan;96103.69;3557196;40;20446;-72
2021/07/12 07:53:16;;;;;;;8.93;2.50;;;;;;;20.49;nan;96108.28;3560111;40;20454;-73
2021/07/12 07:55:46;;;;;;;6.87;1.53;;;;;;;19.73;nan;96107.31;3559088;40;20466;-73
2021/07/12 07:58:14;;;;;;;5.23;1.70;;;;;;;20.37;nan;96107.06;3547874;40;20544;-74
2021/07/12 08:00:42;;;;;;;14.33;2.07;;;;;;;20.81;nan;96102.88;3557154;40;20548;-73
2021/07/12 08:03:10;;;;;;;3.67;1.50;;;;;;;20.80;nan;96107.38;3557260;40;20946;-71
2021/07/12 08:05:38;;;;;;;8.00;1.90;;;;;;;20.89;nan;96100.13;3561930;40;20776;-72
2021/07/12 08:08:07;;;;;;;2.43;1.60;;;;;;;20.24;nan;96099.69;3558303;40;20741;-72
2021/07/12 08:10:34;;;;;;;5.63;1.70;;;;;;;20.60;nan;96085.81;3553579;40;20459;-74
2021/07/12 08:13:09;;;;;;;10.20;1.60;;;;;;;20.31;nan;96103.28;3558384;40;20900;-73
2021/07/12 08:15:38;;;;;;;3.73;1.30;;;;;;;21.26;nan;96091.25;3560324;40;20450;-71
2021/07/12 08:18:09;;;;;;;2.57;1.20;;;;;;;21.25;nan;96096.78;3548991;40;20835;-72
2021/07/12 08:20:38;;;;;;;2.80;1.60;;;;;;;21.34;nan;96090.31;3562245;40;20862;-75
2021/07/12 08:23:06;;;;;;;4.00;1.47;;;;;;;20.69;nan;96079.38;3556179;40;20478;-72
2021/07/12 08:25:33;;;;;;;2.47;1.50;;;;;;;20.95;nan;96064.81;3553100;40;20442;-73
2021/07/12 08:28:03;;;;;;;5.77;1.87;;;;;;;21.30;nan;96067.75;3559026;40;20531;-72
2021/07/12 08:30:32;;;;;;;3.10;1.97;;;;;;;20.78;nan;96071.31;3559561;40;20850;-73
2021/07/12 08:33:00;;;;;;;8.73;1.50;;;;;;;21.31;nan;96061.41;3551556;40;20568;-72
2021/07/12 08:35:28;;;;;;;5.00;1.97;;;;;;;21.38;nan;96059.66;3560791;40;20911;-73
2021/07/12 08:37:56;;;;;;;11.50;1.77;;;;;;;21.78;nan;96067.31;3562693;40;20850;-74
2021/07/12 08:40:28;;;;;;;1.60;1.13;;;;;;;21.57;nan;96046.78;3558992;40;20958;-74
2021/07/12 08:42:58;;;;;;;1.73;1.40;;;;;;;21.56;nan;96061.13;3558672;40;20483;-72
2021/07/12 08:45:28;;;;;;;4.90;1.50;;;;;;;21.73;nan;96063.34;3559459;40;20514;-73
2021/07/12 08:47:58;;;;;;;6.40;1.00;;;;;;;21.14;nan;96063.44;3561083;40;20459;-75
2021/07/12 08:50:27;;;;;;;2.90;1.60;;;;;;;21.38;nan;96066.81;3561281;40;20669;-71
2021/07/12 08:52:56;;;;;;;3.37;1.37;;;;;;;21.78;nan;96073.47;3559809;40;20465;-72
2021/07/12 08:55:25;;;;;;;2.60;1.40;;;;;;;22.06;nan;96075.41;3557719;40;20550;-73
2021/07/12 08:58:02;;;;;;;1.53;1.10;;;;;;;23.26;nan;96050.47;3558342;40;20829;-70
2021/07/12 09:00:39;;;;;;;8.13;1.70;;;;;;;22.83;nan;96068.47;3555860;40;20466;-74
2021/07/12 09:03:21;;;;;;;2.00;1.27;;;;;;;23.18;nan;96052.47;3560187;40;20469;-74
2021/07/12 09:05:54;;;;;;;22.97;12.50;;;;;;;23.87;nan;96054.19;3557848;40;20455;-74
2021/07/12 09:08:46;;;;;;;6.80;1.63;;;;;;;24.59;nan;96044.63;3558047;40;20776;-73
2021/07/12 09:11:20;;;;;;;139.57;12.40;;;;;;;24.02;nan;96054.84;3554231;40;20964;-72
2021/07/12 09:13:54;;;;;;;119.30;11.63;;;;;;;24.26;nan;96050.75;3559744;40;20538;-72
2021/07/12 09:16:34;;;;;;;45.83;4.97;;;;;;;25.24;nan;96052.75;3555118;40;20462;-73
2021/07/12 09:19:07;;;;;;;9.87;1.83;;;;;;;24.63;nan;96061.91;3549519;40;20556;-72
2021/07/12 09:21:39;;;;;;;4.80;1.50;;;;;;;23.76;nan;96076.16;3559187;40;20827;-74
2021/07/12 09:24:22;;;;;;;4.47;2.10;;;;;;;23.73;nan;96073.88;3561609;40;20638;-72
2021/07/12 09:26:56;;;;;;;5.97;1.70;;;;;;;23.40;nan;96075.38;3550625;40;20835;-72
2021/07/12 09:29:25;;;;;;;12.50;2.43;;;;;;;24.02;nan;96078.09;3558083;40;21254;-74
2021/07/12 09:31:54;;;;;;;46.97;4.83;;;;;;;25.03;nan;96069.91;3558809;40;20522;-72
2021/07/12 09:34:24;;;;;;;12.77;6.80;;;;;;;23.49;nan;96078.72;3557193;40;20795;-75
2021/07/12 09:36:53;;;;;;;3.20;1.57;;;;;;;23.72;nan;96088.25;3560733;40;20759;-72
2021/07/12 09:39:34;;;;;;;56.30;5.70;;;;;;;23.88;nan;96079.94;3560299;40;20450;-73
2021/07/12 09:42:06;;;;;;;41.37;5.63;;;;;;;24.08;nan;96080.78;3556448;40;20873;-73
2021/07/12 09:44:36;;;;;;;1.80;1.30;;;;;;;23.99;nan;96065.13;3557520;40;20459;-73
2021/07/12 09:47:07;;;;;;;5.30;1.50;;;;;;;23.82;nan;96064.69;3557900;40;20747;-73
2021/07/12 09:49:36;;;;;;;2.47;1.60;;;;;;;24.14;nan;96051.59;3559999;40;20818;-71
2021/07/12 09:52:08;;;;;;;2.90;1.53;;;;;;;23.84;nan;96062.66;3560436;40;20580;-73
2021/07/12 09:54:38;;;;;;;4.50;1.50;;;;;;;24.02;nan;96044.16;3555229;40;20774;-72
2021/07/12 09:57:10;;;;;;;6.50;1.67;;;;;;;24.88;nan;96036.38;3553846;40;20755;-74
2021/07/12 09:59:53;;;;;;;4.47;1.20;;;;;;;26.14;nan;96030.50;3550302;40;20483;-73
2021/07/12 10:02:25;;;;;;;23.57;2.27;;;;;;;25.28;nan;96025.56;3552873;40;20842;-73
2021/07/12 10:04:58;;;;;;;18.57;2.27;;;;;;;24.71;nan;96031.44;3553966;40;20807;-73
2021/07/12 10:07:27;;;;;;;73.53;7.23;;;;;;;23.93;nan;96041.88;3560080;40;20443;-74
2021/07/12 10:09:56;;;;;;;17.80;1.40;;;;;;;24.21;nan;96039.06;3559592;40;20723;-71
2021/07/12 10:12:24;;;;;;;1.97;1.37;;;;;;;24.75;nan;96047.91;3559933;40;20458;-74
2021/07/12 10:14:52;;;;;;;1.83;1.10;;;;;;;24.92;nan;96040.28;3563071;40;20556;-71
2021/07/12 10:17:21;;;;;;;2.37;1.40;;;;;;;24.72;nan;96034.94;3563151;40;20439;-73
2021/07/12 10:19:49;;;;;;;2.70;1.33;;;;;;;24.00;nan;96034.69;3557618;40;20685;-73
2021/07/12 10:22:23;;;;;;;70.40;5.33;;;;;;;24.57;nan;96024.47;3552117;40;20781;-72
2021/07/12 10:24:53;;;;;;;33.27;2.70;;;;;;;24.83;nan;96039.66;3554937;40;20798;-73
2021/07/12 10:27:23;;;;;;;165.77;12.93;;;;;;;24.74;nan;96046.28;3562404;40;20756;-71
2021/07/12 10:29:52;;;;;;;4.10;1.50;;;;;;;24.79;nan;96049.13;3548944;40;20946;-72
2021/07/12 10:32:20;;;;;;;1.40;1.30;;;;;;;24.61;nan;96047.09;3549732;40;20537;-76
2021/07/12 10:34:50;;;;;;;3.90;1.37;;;;;;;24.76;nan;96044.22;3548255;40;20471;-72
2021/07/12 10:37:22;;;;;;;2.40;1.37;;;;;;;25.34;nan;96048.84;3550241;40;20560;-73
2021/07/12 10:40:14;;;;;;;1.37;1.27;;;;;;;26.10;nan;96057.97;3549371;40;20763;-73
2021/07/12 10:42:53;;;;;;;3.70;1.57;;;;;;;26.15;nan;96050.09;3553636;40;20466;-72
2021/07/12 10:45:39;;;;;;;14.03;2.60;;;;;;;25.18;nan;96037.50;3547880;40;20775;-74
2021/07/12 10:48:10;;;;;;;19.60;2.70;;;;;;;27.17;nan;96029.19;3546179;40;21098;-74
2021/07/12 10:50:43;;;;;;;4.73;1.90;;;;;;;26.66;nan;96024.13;3543996;40;20439;-74
2021/07/12 10:53:35;;;;;;;32.87;3.13;;;;;;;25.14;nan;96022.09;3548791;40;20435;-71
2021/07/12 10:56:08;;;;;;;1.87;1.37;;;;;;;25.29;nan;96022.69;3546988;40;20724;-72
2021/07/12 10:58:46;;;;;;;2.53;1.67;;;;;;;25.55;nan;96035.13;3549768;40;20918;-73
2021/07/12 11:01:37;;;;;;;4.23;1.60;;;;;;;24.95;nan;96045.19;3547232;40;20722;-74
2021/07/12 11:04:45;;;;;;;3.77;1.63;;;;;;;26.29;nan;96048.97;3552644;40;20817;-75
2021/07/12 11:07:15;;;;;;;3.77;1.97;;;;;;;26.01;nan;96038.63;3550148;40;20684;-74
2021/07/12 11:09:53;;;;;;;89.57;8.57;;;;;;;26.06;nan;96033.44;3546549;40;20843;-74
2021/07/12 11:12:51;;;;;;;111.33;14.60;;;;;;;27.52;nan;96033.97;3545241;40;20788;-73
2021/07/12 11:15:28;;;;;;;12.73;2.83;;;;;;;27.46;nan;96042.09;3545092;40;20469;-74
2021/07/12 11:18:07;;;;;;;3.10;1.80;;;;;;;26.33;nan;96054.72;3548330;40;20432;-73
2021/07/12 11:20:44;;;;;;;1.70;1.40;;;;;;;26.72;nan;96055.47;3549709;40;20455;-75
2021/07/12 11:23:46;;;;;;;2.30;1.40;;;;;;;26.39;nan;96053.84;3545044;40;20448;-74
2021/07/12 11:26:48;;;;;;;2.10;1.40;;;;;;;25.97;nan;96053.50;3545612;40;20470;-75
2021/07/12 11:29:21;;;;;;;7.33;1.43;;;;;;;26.96;nan;96041.19;3556143;40;20570;-74
2021/07/12 11:31:52;;;;;;;3.10;1.30;;;;;;;27.15;nan;96030.47;3558099;40;20807;-74
2021/07/12 11:34:22;;;;;;;2.80;1.20;;;;;;;26.01;nan;96035.94;3555062;40;21097;-73
2021/07/12 11:36:53;;;;;;;2.57;1.53;;;;;;;27.04;nan;96029.31;3555706;40;20524;-73
2021/07/12 11:39:38;;;;;;;3.93;1.50;;;;;;;27.77;nan;96006.13;3558783;40;20454;-72
2021/07/12 11:42:17;;;;;;;6.10;1.30;;;;;;;29.11;nan;95988.63;3559610;40;20461;-73
2021/07/12 11:44:51;;;;;;;3.43;1.33;;;;;;;29.84;nan;96002.53;3557576;40;20518;-74
2021/07/12 11:47:23;;;;;;;7.50;1.60;;;;;;;29.85;nan;95987.97;3555205;40;20572;-74
2021/07/12 11:49:53;;;;;;;4.73;1.30;;;;;;;28.86;nan;95989.72;3555507;40;20720;-74
2021/07/12 11:52:22;;;;;;;14.57;1.60;;;;;;;26.62;nan;95984.31;3558823;40;21168;-74
2021/07/12 11:54:56;;;;;;;3.57;1.23;;;;;;;26.93;nan;95981.69;3560076;40;20543;-74
2021/07/12 11:57:27;;;;;;;3.00;1.63;;;;;;;25.78;nan;95983.66;3558707;40;20512;-74
2021/07/12 11:59:55;;;;;;;3.63;1.23;;;;;;;25.34;nan;95988.00;3558015;40;20563;-72
2021/07/12 12:02:23;;;;;;;1.40;1.30;;;;;;;25.01;nan;95993.47;3562644;40;20501;-73
2021/07/12 12:04:55;;;;;;;5.07;1.73;;;;;;;25.66;nan;95993.44;3561405;40;20555;-73
2021/07/12 12:07:33;;;;;;;6.30;1.60;;;;;;;25.85;nan;96002.38;3552891;40;20473;-73
2021/07/12 12:10:05;;;;;;;2.57;1.20;;;;;;;26.02;nan;96010.78;3558259;40;20750;-73